createdAt,value
2019-04-29T00:00:59.481Z,6.80
2019-04-29T00:03:28.509Z,6.75
2019-04-29T00:05:57.511Z,6.73
2019-04-29T00:08:26.543Z,6.73
2019-04-29T00:10:55.557Z,6.70
2019-04-29T00:13:24.582Z,6.55
2019-04-29T00:16:30.824Z,6.52
2019-04-29T00:19:36.655Z,6.57
2019-04-29T00:22:06.340Z,6.58
2019-04-29T00:24:35.635Z,6.60
2019-04-29T00:27:04.810Z,6.65
2019-04-29T00:29:34.126Z,6.62
2019-04-29T00:32:03.545Z,6.60
2019-04-29T00:34:32.527Z,6.63
2019-04-29T00:37:19.005Z,6.65
2019-04-29T00:40:10.120Z,6.60
2019-04-29T00:42:57.753Z,6.63
2019-04-29T00:45:27.163Z,6.55
2019-04-29T00:47:56.219Z,6.54
2019-04-29T00:50:25.279Z,6.51
2019-04-29T00:52:54.663Z,6.50
2019-04-29T00:55:25.799Z,6.53
2019-04-29T00:57:55.216Z,6.52
2019-04-29T01:00:30.850Z,6.52
2019-04-29T01:02:59.893Z,6.52
2019-04-29T01:05:28.893Z,6.51
2019-04-29T01:07:57.892Z,6.49
2019-04-29T01:10:27.290Z,6.48
2019-04-29T01:12:56.289Z,6.40
2019-04-29T01:15:25.283Z,6.37
2019-04-29T01:17:54.297Z,6.09
2019-04-29T01:20:23.340Z,6.07
2019-04-29T01:22:53.127Z,6.03
2019-04-29T01:25:22.129Z,6.03
2019-04-29T01:28:07.121Z,6.08
2019-04-29T01:30:56.571Z,6.12
2019-04-29T01:33:25.592Z,6.09
2019-04-29T01:36:10.039Z,6.04
2019-04-29T01:38:39.035Z,6.06
2019-04-29T01:41:13.567Z,6.16
2019-04-29T01:44:02.212Z,6.11
2019-04-29T01:46:31.240Z,6.09
2019-04-29T01:49:00.254Z,6.06
2019-04-29T01:51:29.679Z,6.01
2019-04-29T01:53:58.749Z,5.96
2019-04-29T01:56:28.170Z,5.97
2019-04-29T01:58:57.612Z,5.94
2019-04-29T02:01:26.602Z,5.92
2019-04-29T02:03:55.605Z,5.91
2019-04-29T02:06:24.680Z,5.85
2019-04-29T02:08:55.346Z,5.84
2019-04-29T02:11:24.380Z,5.82
2019-04-29T02:13:53.776Z,5.85
2019-04-29T02:16:23.398Z,5.89
2019-04-29T02:18:52.427Z,5.90
2019-04-29T02:21:21.453Z,5.85
2019-04-29T02:23:56.860Z,5.85
2019-04-29T02:26:26.298Z,5.84
2019-04-29T02:28:55.425Z,5.85
2019-04-29T02:31:40.770Z,5.81
2019-04-29T02:34:10.224Z,5.77
2019-04-29T02:36:39.320Z,5.79
2019-04-29T02:39:23.873Z,5.79
2019-04-29T02:42:11.935Z,5.78
2019-04-29T02:44:40.936Z,5.71
2019-04-29T02:47:09.980Z,5.40
2019-04-29T02:49:39.649Z,5.22
2019-04-29T02:52:08.636Z,5.25
2019-04-29T02:54:38.043Z,5.25
2019-04-29T02:57:29.079Z,5.27
2019-04-29T03:00:04.800Z,5.19
2019-04-29T03:02:40.861Z,5.31
2019-04-29T03:05:18.819Z,5.29
2019-04-29T03:07:47.840Z,5.26
2019-04-29T03:10:16.927Z,5.15
2019-04-29T03:12:46.025Z,5.28
2019-04-29T03:15:27.315Z,5.19
2019-04-29T03:17:56.320Z,5.12
2019-04-29T03:20:30.508Z,5.12
2019-04-29T03:23:10.910Z,5.09
2019-04-29T03:25:40.285Z,4.99
2019-04-29T03:28:09.278Z,5.03
2019-04-29T03:30:38.587Z,5.07
2019-04-29T03:33:08.126Z,5.09
2019-04-29T03:35:37.184Z,4.99
2019-04-29T03:38:06.595Z,4.91
2019-04-29T03:40:35.624Z,4.91
2019-04-29T03:43:04.619Z,4.89
2019-04-29T03:45:33.609Z,4.89
2019-04-29T03:48:03.020Z,4.82
2019-04-29T03:50:32.355Z,4.85
2019-04-29T03:53:01.368Z,4.87
2019-04-29T03:55:39.901Z,4.85
2019-04-29T03:58:01.709Z,4.96
2019-04-29T04:00:30.705Z,4.92
2019-04-29T04:03:21.445Z,4.79
2019-04-29T04:06:15.421Z,4.77
2019-04-29T04:09:04.831Z,4.78
2019-04-29T04:11:18.743Z,4.66
2019-04-29T04:13:47.754Z,4.63
2019-04-29T04:16:30.278Z,4.57
2019-04-29T04:19:07.280Z,4.59
2019-04-29T04:21:36.294Z,4.47
2019-04-29T04:24:05.295Z,4.40
2019-04-29T04:26:34.589Z,4.36
2019-04-29T04:29:03.974Z,4.27
2019-04-29T04:31:32.993Z,4.27
2019-04-29T04:34:01.995Z,4.31
2019-04-29T04:36:31.354Z,4.31
2019-04-29T04:39:00.380Z,4.45
2019-04-29T04:41:29.551Z,4.42
2019-04-29T04:43:58.857Z,4.49
2019-04-29T04:46:27.868Z,4.57
2019-04-29T04:48:56.892Z,4.58
2019-04-29T04:51:25.904Z,4.63
2019-04-29T04:53:54.903Z,4.73
2019-04-29T04:56:23.930Z,4.81
2019-04-29T04:58:52.919Z,4.83
2019-04-29T05:01:22.256Z,4.84
2019-04-29T05:03:51.297Z,4.82
2019-04-29T05:06:20.307Z,4.86
2019-04-29T05:08:49.312Z,5.04
2019-04-29T05:11:18.720Z,5.13
2019-04-29T05:13:47.708Z,5.24
2019-04-29T05:16:16.896Z,5.31
2019-04-29T05:18:46.600Z,5.28
2019-04-29T05:21:15.964Z,5.40
2019-04-29T05:23:44.979Z,5.40
2019-04-29T05:26:14.058Z,5.53
2019-04-29T05:28:43.102Z,5.63
2019-04-29T05:31:12.284Z,5.68
2019-04-29T05:33:41.385Z,5.61
2019-04-29T05:36:21.494Z,5.61
2019-04-29T05:39:01.449Z,5.61
2019-04-29T05:41:34.916Z,5.67
2019-04-29T05:44:13.219Z,5.67
2019-04-29T05:46:46.647Z,5.71
2019-04-29T05:49:18.916Z,5.75
2019-04-29T05:52:10.458Z,5.66
2019-04-29T05:54:39.970Z,5.73
2019-04-29T05:57:09.341Z,5.88
2019-04-29T05:59:38.454Z,5.69
2019-04-29T06:02:07.461Z,5.67
2019-04-29T06:04:36.481Z,5.93
2019-04-29T06:07:05.514Z,5.96
2019-04-29T06:09:34.802Z,6.08
2019-04-29T06:12:03.824Z,6.18
2019-04-29T06:14:32.878Z,6.38
2019-04-29T06:17:02.931Z,6.42
2019-04-29T06:19:35.245Z,6.61
2019-04-29T06:22:04.049Z,6.69
2019-04-29T06:24:36.893Z,6.72
2019-04-29T06:27:04.350Z,6.67
2019-04-29T06:29:33.338Z,6.64
2019-04-29T06:32:02.361Z,6.66
2019-04-29T06:34:31.439Z,6.93
2019-04-29T06:37:00.452Z,7.13
2019-04-29T06:39:29.497Z,7.32
2019-04-29T06:41:58.535Z,7.47
2019-04-29T06:44:27.605Z,7.63
2019-04-29T06:46:57.474Z,7.81
2019-04-29T06:49:26.876Z,7.82
2019-04-29T06:51:55.941Z,7.81
2019-04-29T06:54:24.971Z,8.02
2019-04-29T06:56:54.014Z,8.14
2019-04-29T06:59:23.365Z,8.22
2019-04-29T07:01:52.719Z,8.35
2019-04-29T07:04:21.736Z,8.44
2019-04-29T07:06:57.602Z,8.66
2019-04-29T07:09:21.848Z,8.86
2019-04-29T07:11:50.910Z,9.06
2019-04-29T07:14:19.960Z,9.09
2019-04-29T07:16:48.974Z,9.21
2019-04-29T07:19:17.978Z,9.36
2019-04-29T07:21:49.911Z,9.58
2019-04-29T07:24:20.471Z,9.78
2019-04-29T07:26:49.780Z,9.78
2019-04-29T07:29:19.631Z,9.82
2019-04-29T07:31:49.424Z,9.98
2019-04-29T07:34:18.494Z,10.10
2019-04-29T07:36:47.901Z,10.26
2019-04-29T07:39:17.132Z,10.68
2019-04-29T07:41:49.542Z,10.68
2019-04-29T07:44:18.399Z,10.97
2019-04-29T07:46:58.423Z,11.04
2019-04-29T07:49:24.139Z,11.12
2019-04-29T07:51:53.188Z,11.29
2019-04-29T07:54:22.207Z,11.19
2019-04-29T07:56:51.545Z,11.20
2019-04-29T07:59:20.548Z,11.63
2019-04-29T08:01:49.609Z,11.77
2019-04-29T08:04:18.621Z,11.91
2019-04-29T08:06:47.710Z,11.93
2019-04-29T08:09:16.829Z,12.52
2019-04-29T08:11:45.869Z,12.57
2019-04-29T08:14:15.461Z,12.69
2019-04-29T08:16:44.508Z,12.57
2019-04-29T08:19:13.519Z,12.83
2019-04-29T08:21:45.490Z,12.94
2019-04-29T08:24:15.917Z,13.00
2019-04-29T08:26:47.449Z,12.94
2019-04-29T08:29:15.041Z,13.17
2019-04-29T08:31:44.085Z,13.23
2019-04-29T08:34:13.153Z,13.25
2019-04-29T08:36:42.221Z,13.26
2019-04-29T08:39:11.318Z,13.56
2019-04-29T08:41:40.350Z,13.74
2019-04-29T08:44:26.905Z,13.93
2019-04-29T08:46:59.655Z,14.36
2019-04-29T08:49:28.713Z,15.13
2019-04-29T08:51:57.779Z,15.60
2019-04-29T08:54:26.785Z,16.28
2019-04-29T08:57:02.756Z,17.57
2019-04-29T08:59:27.287Z,18.44
2019-04-29T09:01:56.361Z,20.09
2019-04-29T09:04:28.489Z,19.79
2019-04-29T09:06:56.139Z,20.46
2019-04-29T09:09:29.145Z,21.16
2019-04-29T09:11:55.997Z,20.59
2019-04-29T09:14:25.120Z,21.35
2019-04-29T09:16:54.908Z,19.88
2019-04-29T09:19:23.943Z,18.88
2019-04-29T09:21:57.064Z,19.54
2019-04-29T09:24:26.368Z,20.72
2019-04-29T09:27:05.041Z,21.41
2019-04-29T09:29:36.803Z,22.29
2019-04-29T09:32:06.619Z,22.34
2019-04-29T09:34:35.745Z,22.01
2019-04-29T09:37:04.869Z,22.68
2019-04-29T09:39:43.148Z,22.29
2019-04-29T09:42:34.883Z,22.17
2019-04-29T09:45:14.670Z,21.74
2019-04-29T09:47:44.995Z,22.37
2019-04-29T09:50:14.188Z,21.79
2019-04-29T09:52:43.295Z,21.61
2019-04-29T09:55:12.631Z,21.93
2019-04-29T09:57:41.678Z,21.63
2019-04-29T10:00:18.995Z,20.82
2019-04-29T10:03:02.604Z,19.93
2019-04-29T10:05:42.714Z,20.87
2019-04-29T10:08:11.777Z,19.79
2019-04-29T10:10:41.530Z,19.71
2019-04-29T10:13:11.047Z,19.15
2019-04-29T10:16:14.351Z,18.98
2019-04-29T10:18:52.112Z,18.70
2019-04-29T10:21:23.294Z,18.70
2019-04-29T10:23:52.613Z,19.59
2019-04-29T10:26:22.369Z,20.25
2019-04-29T10:28:56.356Z,22.44
2019-04-29T10:31:25.892Z,22.66
2019-04-29T10:33:56.512Z,22.34
2019-04-29T10:36:26.402Z,22.61
2019-04-29T10:38:57.682Z,22.67
2019-04-29T10:41:36.147Z,23.88
2019-04-29T10:44:20.672Z,24.21
2019-04-29T10:47:20.903Z,23.41
2019-04-29T10:49:59.429Z,22.16
2019-04-29T10:52:28.456Z,20.95
2019-04-29T10:54:57.481Z,20.72
2019-04-29T10:57:29.295Z,19.80
2019-04-29T11:00:04.295Z,19.49
2019-04-29T11:02:38.201Z,19.78
2019-04-29T11:05:28.143Z,19.60
2019-04-29T11:08:02.688Z,19.97
2019-04-29T11:10:31.711Z,20.37
2019-04-29T11:13:00.773Z,21.24
2019-04-29T11:15:34.070Z,20.84
2019-04-29T11:18:04.061Z,22.96
2019-04-29T11:20:34.052Z,23.28
2019-04-29T11:23:16.708Z,23.64
2019-04-29T11:25:57.313Z,23.19
2019-04-29T11:28:26.499Z,22.38
2019-04-29T11:30:55.579Z,22.34
2019-04-29T11:33:31.116Z,21.21
2019-04-29T11:36:11.233Z,21.03
2019-04-29T11:38:41.201Z,20.58
2019-04-29T11:41:12.337Z,19.80
2019-04-29T11:43:41.189Z,19.89
2019-04-29T11:46:14.532Z,19.48
2019-04-29T11:48:41.573Z,18.96
2019-04-29T11:51:23.171Z,19.29
2019-04-29T11:53:52.344Z,19.00
2019-04-29T11:56:21.394Z,19.04
2019-04-29T11:59:21.754Z,19.53
2019-04-29T12:02:02.411Z,21.13
2019-04-29T12:04:37.387Z,21.78
2019-04-29T12:07:06.434Z,21.15
2019-04-29T12:09:35.970Z,20.62
2019-04-29T12:12:07.812Z,19.73
2019-04-29T12:14:47.820Z,19.69
2019-04-29T12:17:34.913Z,20.07
2019-04-29T12:20:13.260Z,21.46
2019-04-29T12:22:48.591Z,21.74
2019-04-29T12:25:13.240Z,22.14
2019-04-29T12:27:42.301Z,22.70
2019-04-29T12:30:13.154Z,22.97
2019-04-29T12:33:10.293Z,23.10
2019-04-29T12:36:05.175Z,23.35
2019-04-29T12:38:52.273Z,23.51
2019-04-29T12:41:48.897Z,24.16
2019-04-29T12:44:34.411Z,24.84
2019-04-29T12:46:55.507Z,24.76
2019-04-29T12:49:24.597Z,24.60
2019-04-29T12:51:54.011Z,24.56
2019-04-29T12:54:23.895Z,24.53
2019-04-29T12:56:53.320Z,24.43
2019-04-29T12:59:22.390Z,23.71
2019-04-29T13:02:08.205Z,24.12
2019-04-29T13:04:56.215Z,24.03
2019-04-29T13:07:43.201Z,24.23
2019-04-29T13:10:27.445Z,22.60
2019-04-29T13:12:58.158Z,21.96
2019-04-29T13:15:48.534Z,21.96
2019-04-29T13:18:27.120Z,22.29
2019-04-29T13:21:09.555Z,23.08
2019-04-29T13:23:34.819Z,23.49
2019-04-29T13:25:58.171Z,23.20
2019-04-29T13:28:30.193Z,23.43
2019-04-29T13:30:58.286Z,23.99
2019-04-29T13:33:27.415Z,23.10
2019-04-29T13:35:56.791Z,22.23
2019-04-29T13:38:25.820Z,22.65
2019-04-29T13:41:11.822Z,23.42
2019-04-29T13:43:27.196Z,23.61
2019-04-29T13:46:06.295Z,22.78
2019-04-29T13:49:12.259Z,22.84
2019-04-29T13:51:35.848Z,22.57
2019-04-29T13:54:06.112Z,22.28
2019-04-29T13:56:53.836Z,21.83
2019-04-29T13:59:10.042Z,21.26
2019-04-29T14:02:10.546Z,20.88
2019-04-29T14:04:43.443Z,20.91
2019-04-29T14:07:13.998Z,20.95
2019-04-29T14:09:43.547Z,20.78
2019-04-29T14:12:47.296Z,20.77
2019-04-29T14:14:43.863Z,20.44
2019-04-29T14:17:25.891Z,20.76
2019-04-29T14:19:44.180Z,20.45
2019-04-29T14:22:22.086Z,20.41
2019-04-29T14:24:46.796Z,20.50
2019-04-29T14:27:24.735Z,20.38
2019-04-29T14:29:46.148Z,20.49
2019-04-29T14:32:18.301Z,20.40
2019-04-29T14:35:01.149Z,20.63
2019-04-29T14:37:30.579Z,20.40
2019-04-29T14:40:02.817Z,21.38
2019-04-29T14:42:57.935Z,21.18
2019-04-29T14:45:51.678Z,21.84
2019-04-29T14:48:42.749Z,21.42
2019-04-29T14:51:07.849Z,20.47
2019-04-29T14:53:37.243Z,20.15
2019-04-29T14:56:06.323Z,19.60
2019-04-29T14:58:35.437Z,19.52
2019-04-29T15:01:27.741Z,19.28
2019-04-29T15:04:18.000Z,19.25
2019-04-29T15:06:41.499Z,19.01
2019-04-29T15:09:16.826Z,18.97
2019-04-29T15:11:49.630Z,19.02
2019-04-29T15:14:59.114Z,19.11
2019-04-29T15:17:44.888Z,19.20
2019-04-29T15:20:31.612Z,19.32
2019-04-29T15:23:00.559Z,20.09
2019-04-29T15:25:29.638Z,20.60
2019-04-29T15:27:58.979Z,20.81
2019-04-29T15:30:31.873Z,20.55
2019-04-29T15:33:01.688Z,20.60
2019-04-29T15:35:30.752Z,20.04
2019-04-29T15:38:00.191Z,20.34
2019-04-29T15:40:29.343Z,20.53
2019-04-29T15:42:58.701Z,20.54
2019-04-29T15:45:32.326Z,20.75
2019-04-29T15:48:01.466Z,20.81
2019-04-29T15:50:32.731Z,21.18
2019-04-29T15:53:02.900Z,21.04
2019-04-29T15:55:34.782Z,21.08
2019-04-29T15:58:06.955Z,21.27
2019-04-29T16:00:40.597Z,21.48
2019-04-29T16:03:12.607Z,21.31
2019-04-29T16:06:19.813Z,21.19
2019-04-29T16:08:50.880Z,20.28
2019-04-29T16:11:37.657Z,19.67
2019-04-29T16:14:11.922Z,19.61
2019-04-29T16:16:41.021Z,19.99
2019-04-29T16:19:10.487Z,19.48
2019-04-29T16:21:41.786Z,19.62
2019-04-29T16:24:25.663Z,19.28
2019-04-29T16:26:42.046Z,19.15
2019-04-29T16:29:13.207Z,18.81
2019-04-29T16:31:43.018Z,18.75
2019-04-29T16:34:14.794Z,18.88
2019-04-29T16:36:49.816Z,18.59
2019-04-29T16:39:14.952Z,18.27
2019-04-29T16:42:01.683Z,18.34
2019-04-29T16:44:36.114Z,17.99
2019-04-29T16:47:07.530Z,18.12
2019-04-29T16:49:33.935Z,18.42
2019-04-29T16:52:02.972Z,18.25
2019-04-29T16:54:32.040Z,18.22
2019-04-29T16:57:01.482Z,18.17
2019-04-29T16:59:30.588Z,18.27
2019-04-29T17:01:59.965Z,18.32
2019-04-29T17:04:29.073Z,18.31
2019-04-29T17:09:47.139Z,18.80
2019-04-29T17:12:16.196Z,18.84
2019-04-29T17:15:02.867Z,18.80
2019-04-29T17:17:28.535Z,18.86
2019-04-29T17:19:51.170Z,18.92
2019-04-29T17:22:25.861Z,18.87
2019-04-29T17:24:51.548Z,18.83
2019-04-29T17:27:45.403Z,18.45
2019-04-29T17:30:37.708Z,18.50
2019-04-29T17:33:28.325Z,18.17
2019-04-29T17:35:17.595Z,18.62
2019-04-29T17:35:51.312Z,17.88
2019-04-29T17:38:23.429Z,17.76
2019-04-29T17:40:54.166Z,17.41
2019-04-29T17:43:43.433Z,17.19
2019-04-29T17:46:27.062Z,17.21
2019-04-29T17:49:13.428Z,16.97
2019-04-29T17:51:45.935Z,16.97
2019-04-29T17:54:18.866Z,16.76
2019-04-29T17:57:25.435Z,16.48
2019-04-29T18:00:19.552Z,16.46
2019-04-29T18:03:17.533Z,16.46
2019-04-29T18:06:24.372Z,16.36
2019-04-29T18:09:29.435Z,16.15
2019-04-29T18:12:02.396Z,15.88
2019-04-29T18:14:37.883Z,15.84
2019-04-29T18:17:04.904Z,15.78
2019-04-29T18:19:55.921Z,15.65
2019-04-29T18:22:44.657Z,15.42
2019-04-29T18:25:32.752Z,15.35
2019-04-29T18:28:01.869Z,15.10
2019-04-29T18:30:35.751Z,15.06
2019-04-29T18:33:02.253Z,14.98
2019-04-29T18:35:31.367Z,14.77
2019-04-29T18:38:00.793Z,14.68
2019-04-29T18:40:30.377Z,14.54
2019-04-29T18:43:01.689Z,14.47
2019-04-29T18:45:34.540Z,14.32
2019-04-29T18:48:01.859Z,14.19
2019-04-29T18:50:34.253Z,14.02
2019-04-29T18:53:03.025Z,13.90
2019-04-29T18:55:32.076Z,13.88
2019-04-29T18:58:01.395Z,13.60
2019-04-29T19:00:30.465Z,13.48
2019-04-29T19:03:01.040Z,13.38
2019-04-29T19:05:48.622Z,13.26
2019-04-29T19:08:23.064Z,12.99
2019-04-29T19:10:50.975Z,12.90
2019-04-29T19:13:19.344Z,12.73
2019-04-29T19:15:48.775Z,12.68
2019-04-29T19:18:21.030Z,12.53
2019-04-29T19:20:52.819Z,12.45
2019-04-29T19:23:22.477Z,12.41
2019-04-29T19:25:51.389Z,12.40
2019-04-29T19:28:29.574Z,12.31
2019-04-29T19:30:56.185Z,12.23
2019-04-29T19:33:22.494Z,12.16
2019-04-29T19:38:20.215Z,12.23
2019-04-29T19:40:51.718Z,12.21
2019-04-29T19:43:23.776Z,12.11
2019-04-29T19:45:53.126Z,12.03
2019-04-29T19:48:27.022Z,12.04
2019-04-29T19:51:13.842Z,12.03
2019-04-29T19:53:27.917Z,11.99
2019-04-29T19:56:03.772Z,11.88
2019-04-29T19:58:29.601Z,11.74
2019-04-29T20:01:10.789Z,11.68
2019-04-29T20:03:37.912Z,11.64
2019-04-29T20:06:09.723Z,11.53
2019-04-29T20:08:53.535Z,11.42
2019-04-29T20:11:14.119Z,11.35
2019-04-29T20:13:59.750Z,11.17
2019-04-29T20:16:42.773Z,11.14
2019-04-29T20:19:27.398Z,11.15
2019-04-29T20:22:00.394Z,11.15
2019-04-29T20:24:32.837Z,11.04
2019-04-29T20:27:02.089Z,10.93
2019-04-29T20:29:33.941Z,10.95
2019-04-29T20:32:02.437Z,10.95
2019-04-29T20:34:35.975Z,10.84
2019-04-29T20:37:05.994Z,10.78
2019-04-29T20:39:35.897Z,10.71
2019-04-29T20:42:10.056Z,10.53
2019-04-29T20:44:37.067Z,10.53
2019-04-29T20:47:19.624Z,10.51
2019-04-29T20:49:39.686Z,10.32
2019-04-29T20:52:43.080Z,10.32
2019-04-29T20:55:12.597Z,10.22
2019-04-29T20:57:43.453Z,10.22
2019-04-29T21:00:12.996Z,10.21
2019-04-29T21:02:45.243Z,10.24
2019-04-29T21:05:23.067Z,10.24
2019-04-29T21:07:45.258Z,10.17
2019-04-29T21:10:15.855Z,10.20
2019-04-29T21:13:08.787Z,10.14
2019-04-29T21:15:51.979Z,10.10
2019-04-29T21:18:18.236Z,10.10
2019-04-29T21:20:49.229Z,10.06
2019-04-29T21:23:18.328Z,10.03
2019-04-29T21:25:50.813Z,9.94
2019-04-29T21:28:21.927Z,9.92
2019-04-29T21:30:52.869Z,9.94
2019-04-29T21:33:22.111Z,9.98
2019-04-29T21:36:08.518Z,9.93
2019-04-29T21:38:55.806Z,9.95
2019-04-29T21:41:30.401Z,9.86
2019-04-29T21:44:00.596Z,9.76
2019-04-29T21:46:29.715Z,9.73
2019-04-29T21:48:58.792Z,9.82
2019-04-29T21:51:30.973Z,9.78
2019-04-29T21:54:00.084Z,9.71
2019-04-29T21:56:29.437Z,9.67
2019-04-29T21:58:58.549Z,9.72
2019-04-29T22:01:29.474Z,9.82
2019-04-29T22:04:02.166Z,9.83
2019-04-29T22:06:31.972Z,9.64
2019-04-29T22:09:02.535Z,9.68
2019-04-29T22:11:31.729Z,9.59
2019-04-29T22:14:00.781Z,9.60
2019-04-29T22:16:32.868Z,9.55
2019-04-29T22:19:02.570Z,9.48
2019-04-29T22:21:32.905Z,9.46
2019-04-29T22:24:01.922Z,9.48
2019-04-29T22:26:30.989Z,9.53
2019-04-29T22:29:03.400Z,9.57
2019-04-29T22:31:34.086Z,9.54
2019-04-29T22:34:01.871Z,9.55
2019-04-29T22:36:31.259Z,9.52
2019-04-29T22:39:00.865Z,9.46
2019-04-29T22:41:52.738Z,9.48
2019-04-29T22:44:25.876Z,9.37
2019-04-29T22:46:55.708Z,9.33
2019-04-29T22:49:29.219Z,9.34
2019-04-29T22:51:57.098Z,9.26
2019-04-29T22:54:26.662Z,9.24
2019-04-29T22:56:56.708Z,9.17
2019-04-29T22:59:27.515Z,9.20
2019-04-29T23:01:57.464Z,9.13
2019-04-29T23:04:26.513Z,9.16
2019-04-29T23:06:55.687Z,9.11
2019-04-29T23:09:24.732Z,9.08
2019-04-29T23:11:55.688Z,9.06
2019-04-29T23:14:25.268Z,9.04
2019-04-29T23:16:55.568Z,9.04
2019-04-29T23:19:29.436Z,8.96
2019-04-29T23:22:22.239Z,8.99
2019-04-29T23:25:00.300Z,9.00
2019-04-29T23:27:29.827Z,8.99
2019-04-29T23:29:58.873Z,8.93
2019-04-29T23:32:30.400Z,8.90
2019-04-29T23:35:06.288Z,8.83
2019-04-29T23:37:33.405Z,8.82
2019-04-29T23:40:02.769Z,8.73
2019-04-29T23:42:33.700Z,8.81
2019-04-29T23:45:05.172Z,8.66
2019-04-29T23:47:35.775Z,8.74
2019-04-29T23:50:08.670Z,8.73
2019-04-29T23:52:43.016Z,8.72
2019-04-29T23:55:12.137Z,8.77
2019-04-29T23:58:04.352Z,8.64
